sensor_id;sensor_type;location;lat;lon;timestamp;temperature;humidity
36372;DHT22;22398;51.346;12.372;2024-03-23T00:56:47;10.50;99.90
36372;DHT22;22398;51.346;12.372;2024-03-23T01:01:50;10.50;99.90
36372;DHT22;22398;51.346;12.372;2024-03-23T01:06:52;10.50;99.90
36372;DHT22;22398;51.346;12.372;2024-03-23T01:11:56;10.60;99.90
36372;DHT22;22398;51.346;12.372;2024-03-23T01:16:58;10.60;99.90
36372;DHT22;22398;51.346;12.372;2024-03-23T01:22:00;10.50;99.90
36372;DHT22;22398;51.346;12.372;2024-03-23T01:27:04;10.50;99.90
36372;DHT22;22398;51.346;12.372;2024-03-23T01:32:07;10.40;99.90
36372;DHT22;22398;51.346;12.372;2024-03-23T01:37:11;10.30;99.90
36372;DHT22;22398;51.346;12.372;2024-03-23T01:42:14;10.10;99.90
36372;DHT22;22398;51.346;12.372;2024-03-23T01:47:17;10.00;99.90
36372;DHT22;22398;51.346;12.372;2024-03-23T01:52:19;9.80;99.90
36372;DHT22;22398;51.346;12.372;2024-03-23T01:57:23;9.70;99.90
36372;DHT22;22398;51.346;12.372;2024-03-23T02:02:25;9.50;99.90
36372;DHT22;22398;51.346;12.372;2024-03-23T02:07:27;9.50;99.90
36372;DHT22;22398;51.346;12.372;2024-03-23T02:12:32;9.50;99.90
36372;DHT22;22398;51.346;12.372;2024-03-23T02:17:35;9.50;99.90
36372;DHT22;22398;51.346;12.372;2024-03-23T02:22:37;9.40;99.90
36372;DHT22;22398;51.346;12.372;2024-03-23T02:27:41;9.40;99.90
36372;DHT22;22398;51.346;12.372;2024-03-23T02:32:43;9.40;99.90
36372;DHT22;22398;51.346;12.372;2024-03-23T02:37:46;9.40;99.90
36372;DHT22;22398;51.346;12.372;2024-03-23T02:42:51;9.40;99.90
36372;DHT22;22398;51.346;12.372;2024-03-23T02:47:53;9.40;99.90
36372;DHT22;22398;51.346;12.372;2024-03-23T02:52:55;9.50;99.90
36372;DHT22;22398;51.346;12.372;2024-03-23T02:57:59;9.50;99.90
36372;DHT22;22398;51.346;12.372;2024-03-23T03:03:03;9.60;99.90
36372;DHT22;22398;51.346;12.372;2024-03-23T03:08:06;9.50;99.90
36372;DHT22;22398;51.346;12.372;2024-03-23T03:13:10;9.50;99.90
36372;DHT22;22398;51.346;12.372;2024-03-23T03:18:12;9.40;99.90
36372;DHT22;22398;51.346;12.372;2024-03-23T03:23:16;9.40;99.90
36372;DHT22;22398;51.346;12.372;2024-03-23T03:28:20;9.40;99.90
36372;DHT22;22398;51.346;12.372;2024-03-23T03:33:22;9.40;99.90
36372;DHT22;22398;51.346;12.372;2024-03-23T03:38:25;9.40;99.90
36372;DHT22;22398;51.346;12.372;2024-03-23T03:43:28;9.40;99.90
36372;DHT22;22398;51.346;12.372;2024-03-23T03:48:30;9.50;99.90
36372;DHT22;22398;51.346;12.372;2024-03-23T03:53:32;9.50;99.90
36372;DHT22;22398;51.346;12.372;2024-03-23T03:58:36;9.50;99.90
36372;DHT22;22398;51.346;12.372;2024-03-23T04:03:38;9.40;99.90
36372;DHT22;22398;51.346;12.372;2024-03-23T04:08:44;9.40;99.90
36372;DHT22;22398;51.346;12.372;2024-03-23T04:13:47;9.30;99.90
36372;DHT22;22398;51.346;12.372;2024-03-23T04:18:50;9.40;99.90
36372;DHT22;22398;51.346;12.372;2024-03-23T04:23:52;9.30;99.90
36372;DHT22;22398;51.346;12.372;2024-03-23T04:28:55;9.30;99.90
36372;DHT22;22398;51.346;12.372;2024-03-23T04:33:57;9.30;99.90
36372;DHT22;22398;51.346;12.372;2024-03-23T04:39:00;9.30;99.90
36372;DHT22;22398;51.346;12.372;2024-03-23T04:44:04;9.30;99.90
36372;DHT22;22398;51.346;12.372;2024-03-23T04:49:06;9.30;99.90
36372;DHT22;22398;51.346;12.372;2024-03-23T04:54:08;9.20;99.90
36372;DHT22;22398;51.346;12.372;2024-03-23T04:59:12;9.20;99.90
36372;DHT22;22398;51.346;12.372;2024-03-23T05:04:15;9.20;99.90
36372;DHT22;22398;51.346;12.372;2024-03-23T05:09:18;9.20;99.90
36372;DHT22;22398;51.346;12.372;2024-03-23T05:14:22;9.20;99.90
36372;DHT22;22398;51.346;12.372;2024-03-23T05:19:24;9.20;99.90
36372;DHT22;22398;51.346;12.372;2024-03-23T05:24:26;9.20;99.90
36372;DHT22;22398;51.346;12.372;2024-03-23T05:29:31;9.20;99.90
36372;DHT22;22398;51.346;12.372;2024-03-23T05:34:33;9.20;99.90
36372;DHT22;22398;51.346;12.372;2024-03-23T05:39:36;9.20;99.90
36372;DHT22;22398;51.346;12.372;2024-03-23T05:44:39;9.20;99.90
36372;DHT22;22398;51.346;12.372;2024-03-23T05:49:41;9.30;99.90
36372;DHT22;22398;51.346;12.372;2024-03-23T05:54:44;9.20;99.90
36372;DHT22;22398;51.346;12.372;2024-03-23T05:59:47;9.10;99.90
36372;DHT22;22398;51.346;12.372;2024-03-23T06:04:49;9.10;99.90
36372;DHT22;22398;51.346;12.372;2024-03-23T06:09:51;9.10;99.90
36372;DHT22;22398;51.346;12.372;2024-03-23T06:14:55;9.00;99.90
36372;DHT22;22398;51.346;12.372;2024-03-23T06:19:57;9.00;99.90
36372;DHT22;22398;51.346;12.372;2024-03-23T06:24:59;9.00;99.90
36372;DHT22;22398;51.346;12.372;2024-03-23T06:30:04;8.90;99.90
36372;DHT22;22398;51.346;12.372;2024-03-23T06:35:07;9.00;99.90
36372;DHT22;22398;51.346;12.372;2024-03-23T06:40:10;9.10;99.90
36372;DHT22;22398;51.346;12.372;2024-03-23T06:45:14;9.10;99.90
36372;DHT22;22398;51.346;12.372;2024-03-23T06:50:16;9.00;99.90
36372;DHT22;22398;51.346;12.372;2024-03-23T06:55:18;9.00;99.90
36372;DHT22;22398;51.346;12.372;2024-03-23T07:00:22;9.00;99.90
36372;DHT22;22398;51.346;12.372;2024-03-23T09:18:00;4.50;99.90
36372;DHT22;22398;51.346;12.372;2024-03-23T09:23:03;4.60;99.90
36372;DHT22;22398;51.346;12.372;2024-03-23T09:28:06;4.80;99.90
36372;DHT22;22398;51.346;12.372;2024-03-23T09:33:11;4.80;99.90
36372;DHT22;22398;51.346;12.372;2024-03-23T09:38:13;5.10;99.90
36372;DHT22;22398;51.346;12.372;2024-03-23T09:43:16;5.00;99.90
36372;DHT22;22398;51.346;12.372;2024-03-23T09:48:19;4.80;99.90
36372;DHT22;22398;51.346;12.372;2024-03-23T09:53:22;4.80;99.90
36372;DHT22;22398;51.346;12.372;2024-03-23T09:58:25;4.70;99.90
36372;DHT22;22398;51.346;12.372;2024-03-23T10:03:29;4.70;99.90
36372;DHT22;22398;51.346;12.372;2024-03-23T10:08:31;4.80;99.90
36372;DHT22;22398;51.346;12.372;2024-03-23T10:13:34;4.80;99.90
36372;DHT22;22398;51.346;12.372;2024-03-23T10:18:40;4.70;99.90
36372;DHT22;22398;51.346;12.372;2024-03-23T10:23:43;4.60;99.90
36372;DHT22;22398;51.346;12.372;2024-03-23T10:28:54;4.60;99.90
36372;DHT22;22398;51.346;12.372;2024-03-23T10:33:59;4.70;99.90
36372;DHT22;22398;51.346;12.372;2024-03-23T10:39:02;4.80;99.90
36372;DHT22;22398;51.346;12.372;2024-03-23T10:44:05;4.80;99.90
36372;DHT22;22398;51.346;12.372;2024-03-23T10:49:08;4.80;99.90
36372;DHT22;22398;51.346;12.372;2024-03-23T10:54:11;4.80;99.90
36372;DHT22;22398;51.346;12.372;2024-03-23T10:59:15;4.80;99.90
36372;DHT22;22398;51.346;12.372;2024-03-23T11:04:31;5.10;99.90
36372;DHT22;22398;51.346;12.372;2024-03-23T11:09:40;5.30;99.90
36372;DHT22;22398;51.346;12.372;2024-03-23T11:14:45;5.60;99.90
36372;DHT22;22398;51.346;12.372;2024-03-23T11:19:58;5.70;99.90
36372;DHT22;22398;51.346;12.372;2024-03-23T11:25:00;5.80;99.90
36372;DHT22;22398;51.346;12.372;2024-03-23T11:30:12;5.90;99.90
36372;DHT22;22398;51.346;12.372;2024-03-23T11:35:32;6.30;99.90
36372;DHT22;22398;51.346;12.372;2024-03-23T11:40:35;6.50;99.90
36372;DHT22;22398;51.346;12.372;2024-03-23T11:45:39;6.60;99.90
36372;DHT22;22398;51.346;12.372;2024-03-23T11:50:44;7.00;99.90
36372;DHT22;22398;51.346;12.372;2024-03-23T11:55:48;7.30;99.90
36372;DHT22;22398;51.346;12.372;2024-03-23T12:00:51;7.20;99.90
36372;DHT22;22398;51.346;12.372;2024-03-23T12:05:56;7.20;99.90
36372;DHT22;22398;51.346;12.372;2024-03-23T12:11:06;7.10;99.90
36372;DHT22;22398;51.346;12.372;2024-03-23T12:16:12;7.50;99.90
36372;DHT22;22398;51.346;12.372;2024-03-23T12:21:16;7.50;99.90
36372;DHT22;22398;51.346;12.372;2024-03-23T12:26:18;7.90;99.90
36372;DHT22;22398;51.346;12.372;2024-03-23T12:31:21;7.80;99.90
36372;DHT22;22398;51.346;12.372;2024-03-23T12:36:25;7.90;99.90
36372;DHT22;22398;51.346;12.372;2024-03-23T12:41:27;8.50;99.90
36372;DHT22;22398;51.346;12.372;2024-03-23T12:46:29;9.30;99.90
36372;DHT22;22398;51.346;12.372;2024-03-23T12:51:33;9.30;99.90
36372;DHT22;22398;51.346;12.372;2024-03-23T12:56:35;9.00;99.90
36372;DHT22;22398;51.346;12.372;2024-03-23T13:01:37;8.90;99.90
36372;DHT22;22398;51.346;12.372;2024-03-23T13:06:41;8.90;99.90
36372;DHT22;22398;51.346;12.372;2024-03-23T13:11:43;9.00;99.90
36372;DHT22;22398;51.346;12.372;2024-03-23T13:16:45;9.40;99.90
36372;DHT22;22398;51.346;12.372;2024-03-23T13:21:49;9.20;99.90
36372;DHT22;22398;51.346;12.372;2024-03-23T13:26:51;9.50;99.90
36372;DHT22;22398;51.346;12.372;2024-03-23T13:31:54;9.90;99.90
36372;DHT22;22398;51.346;12.372;2024-03-23T13:36:57;10.20;99.90
36372;DHT22;22398;51.346;12.372;2024-03-23T13:42:00;10.40;99.90
36372;DHT22;22398;51.346;12.372;2024-03-23T13:47:02;11.00;99.90
36372;DHT22;22398;51.346;12.372;2024-03-23T13:52:06;11.60;99.90
36372;DHT22;22398;51.346;12.372;2024-03-23T13:57:09;11.10;99.90
36372;DHT22;22398;51.346;12.372;2024-03-23T14:02:11;10.60;99.90
36372;DHT22;22398;51.346;12.372;2024-03-23T14:07:16;9.00;99.90
36372;DHT22;22398;51.346;12.372;2024-03-23T14:12:20;7.90;99.90
36372;DHT22;22398;51.346;12.372;2024-03-23T14:17:22;7.70;99.90
36372;DHT22;22398;51.346;12.372;2024-03-23T14:22:26;7.70;99.90
36372;DHT22;22398;51.346;12.372;2024-03-23T14:27:29;7.80;99.90
36372;DHT22;22398;51.346;12.372;2024-03-23T14:32:31;8.10;99.90
36372;DHT22;22398;51.346;12.372;2024-03-23T14:37:36;8.20;99.90
36372;DHT22;22398;51.346;12.372;2024-03-23T14:42:39;6.80;99.90
36372;DHT22;22398;51.346;12.372;2024-03-23T14:47:42;5.90;99.90
36372;DHT22;22398;51.346;12.372;2024-03-23T14:52:45;6.10;99.90
36372;DHT22;22398;51.346;12.372;2024-03-23T14:57:48;5.30;99.90
36372;DHT22;22398;51.346;12.372;2024-03-23T15:02:53;5.30;99.90
36372;DHT22;22398;51.346;12.372;2024-03-23T15:07:57;5.30;99.90
36372;DHT22;22398;51.346;12.372;2024-03-23T15:13:00;5.50;99.90
36372;DHT22;22398;51.346;12.372;2024-03-23T15:18:03;5.60;99.90
36372;DHT22;22398;51.346;12.372;2024-03-23T15:23:07;5.80;99.90
36372;DHT22;22398;51.346;12.372;2024-03-23T15:28:09;6.30;99.90
36372;DHT22;22398;51.346;12.372;2024-03-23T15:33:12;6.30;99.90
36372;DHT22;22398;51.346;12.372;2024-03-23T15:38:15;6.30;99.90
36372;DHT22;22398;51.346;12.372;2024-03-23T15:53:27;6.50;99.90
36372;DHT22;22398;51.346;12.372;2024-03-23T15:58:30;6.40;99.90
36372;DHT22;22398;51.346;12.372;2024-03-23T16:03:33;6.30;99.90
36372;DHT22;22398;51.346;12.372;2024-03-23T16:08:36;6.50;99.90
36372;DHT22;22398;51.346;12.372;2024-03-23T16:18:42;6.50;99.90
36372;DHT22;22398;51.346;12.372;2024-03-23T16:23:46;6.50;99.90
36372;DHT22;22398;51.346;12.372;2024-03-23T16:33:51;6.50;99.90
36372;DHT22;22398;51.346;12.372;2024-03-23T16:38:55;6.40;99.90
36372;DHT22;22398;51.346;12.372;2024-03-23T16:43:57;6.30;99.90
36372;DHT22;22398;51.346;12.372;2024-03-23T16:54:03;6.10;99.90
36372;DHT22;22398;51.346;12.372;2024-03-23T16:59:05;6.10;99.90
36372;DHT22;22398;51.346;12.372;2024-03-23T17:04:08;6.10;99.90
36372;DHT22;22398;51.346;12.372;2024-03-23T17:09:12;6.30;99.90
36372;DHT22;22398;51.346;12.372;2024-03-23T17:14:15;6.40;99.90
36372;DHT22;22398;51.346;12.372;2024-03-23T17:19:20;6.50;99.90
36372;DHT22;22398;51.346;12.372;2024-03-23T17:24:24;6.30;99.90
36372;DHT22;22398;51.346;12.372;2024-03-23T17:29:26;5.90;99.90
36372;DHT22;22398;51.346;12.372;2024-03-23T17:34:29;5.80;99.90
36372;DHT22;22398;51.346;12.372;2024-03-23T17:39:32;5.60;99.90
36372;DHT22;22398;51.346;12.372;2024-03-23T17:44:34;5.40;99.90
36372;DHT22;22398;51.346;12.372;2024-03-23T17:49:37;5.10;99.90
36372;DHT22;22398;51.346;12.372;2024-03-23T17:54:40;4.90;99.90
36372;DHT22;22398;51.346;12.372;2024-03-23T17:59:42;4.70;99.90
36372;DHT22;22398;51.346;12.372;2024-03-23T18:04:44;4.60;99.90
36372;DHT22;22398;51.346;12.372;2024-03-23T18:09:48;4.40;99.90
36372;DHT22;22398;51.346;12.372;2024-03-23T18:14:50;4.40;99.90
36372;DHT22;22398;51.346;12.372;2024-03-23T18:19:55;4.30;99.90
36372;DHT22;22398;51.346;12.372;2024-03-23T18:24:58;4.20;99.90
36372;DHT22;22398;51.346;12.372;2024-03-23T18:30:02;4.20;99.90
36372;DHT22;22398;51.346;12.372;2024-03-23T18:35:05;4.10;99.90
36372;DHT22;22398;51.346;12.372;2024-03-23T18:40:11;4.00;99.90
36372;DHT22;22398;51.346;12.372;2024-03-23T18:45:13;4.00;99.90
36372;DHT22;22398;51.346;12.372;2024-03-23T18:50:15;3.90;99.90
36372;DHT22;22398;51.346;12.372;2024-03-23T18:55:19;3.90;99.90
36372;DHT22;22398;51.346;12.372;2024-03-23T19:00:22;3.80;99.90
36372;DHT22;22398;51.346;12.372;2024-03-23T19:05:25;3.80;99.90
36372;DHT22;22398;51.346;12.372;2024-03-23T19:10:28;3.70;99.90
36372;DHT22;22398;51.346;12.372;2024-03-23T19:15:30;3.70;99.90
36372;DHT22;22398;51.346;12.372;2024-03-23T19:20:33;3.70;99.90
36372;DHT22;22398;51.346;12.372;2024-03-23T19:25:36;3.70;99.90
36372;DHT22;22398;51.346;12.372;2024-03-23T19:30:39;4.10;99.90
36372;DHT22;22398;51.346;12.372;2024-03-23T19:35:41;4.30;99.90
36372;DHT22;22398;51.346;12.372;2024-03-23T19:40:53;4.60;99.90
36372;DHT22;22398;51.346;12.372;2024-03-23T19:45:55;5.00;99.90
36372;DHT22;22398;51.346;12.372;2024-03-23T19:50:59;4.90;99.90
36372;DHT22;22398;51.346;12.372;2024-03-23T19:56:03;4.60;99.90
36372;DHT22;22398;51.346;12.372;2024-03-23T20:01:14;4.70;99.90
36372;DHT22;22398;51.346;12.372;2024-03-23T20:06:18;4.70;99.90
36372;DHT22;22398;51.346;12.372;2024-03-23T20:11:24;4.70;99.90
36372;DHT22;22398;51.346;12.372;2024-03-23T20:16:26;4.70;99.90
36372;DHT22;22398;51.346;12.372;2024-03-23T20:21:28;4.70;99.90
36372;DHT22;22398;51.346;12.372;2024-03-23T20:26:32;4.60;99.90
36372;DHT22;22398;51.346;12.372;2024-03-23T20:36:37;4.80;99.90
36372;DHT22;22398;51.346;12.372;2024-03-23T20:41:41;4.80;99.90
36372;DHT22;22398;51.346;12.372;2024-03-23T20:46:43;5.00;99.90
36372;DHT22;22398;51.346;12.372;2024-03-23T20:51:46;5.20;99.90
36372;DHT22;22398;51.346;12.372;2024-03-23T20:56:49;5.10;99.90
36372;DHT22;22398;51.346;12.372;2024-03-23T21:01:52;5.10;99.90
36372;DHT22;22398;51.346;12.372;2024-03-23T21:06:54;5.10;99.90
36372;DHT22;22398;51.346;12.372;2024-03-23T21:11:58;5.10;99.90
36372;DHT22;22398;51.346;12.372;2024-03-23T21:17:00;5.00;99.90
36372;DHT22;22398;51.346;12.372;2024-03-23T21:22:03;4.70;99.90
36372;DHT22;22398;51.346;12.372;2024-03-23T21:27:08;4.40;99.90
36372;DHT22;22398;51.346;12.372;2024-03-23T21:32:10;4.40;99.90
36372;DHT22;22398;51.346;12.372;2024-03-23T21:37:12;4.30;99.90
36372;DHT22;22398;51.346;12.372;2024-03-23T21:42:16;4.20;99.90
36372;DHT22;22398;51.346;12.372;2024-03-23T21:47:18;4.20;99.90
36372;DHT22;22398;51.346;12.372;2024-03-23T21:52:20;4.20;99.90
36372;DHT22;22398;51.346;12.372;2024-03-23T21:57:24;4.30;99.90
36372;DHT22;22398;51.346;12.372;2024-03-23T22:02:26;4.20;99.90
36372;DHT22;22398;51.346;12.372;2024-03-23T22:07:29;4.00;99.90
36372;DHT22;22398;51.346;12.372;2024-03-23T22:12:32;3.90;99.90
36372;DHT22;22398;51.346;12.372;2024-03-23T22:17:35;3.70;99.90
36372;DHT22;22398;51.346;12.372;2024-03-23T22:22:37;3.60;99.90
36372;DHT22;22398;51.346;12.372;2024-03-23T22:27:41;3.50;99.90
36372;DHT22;22398;51.346;12.372;2024-03-23T22:32:43;3.40;99.90
36372;DHT22;22398;51.346;12.372;2024-03-23T22:37:46;3.30;99.90
36372;DHT22;22398;51.346;12.372;2024-03-23T22:42:50;3.30;99.90
36372;DHT22;22398;51.346;12.372;2024-03-23T22:47:52;3.20;99.90
36372;DHT22;22398;51.346;12.372;2024-03-23T22:52:54;3.10;99.90
36372;DHT22;22398;51.346;12.372;2024-03-23T22:57:58;3.10;99.90
36372;DHT22;22398;51.346;12.372;2024-03-23T23:03:01;3.00;99.90
36372;DHT22;22398;51.346;12.372;2024-03-23T23:08:04;3.00;99.90
36372;DHT22;22398;51.346;12.372;2024-03-23T23:13:07;3.00;99.90
36372;DHT22;22398;51.346;12.372;2024-03-23T23:18:09;3.00;99.90
36372;DHT22;22398;51.346;12.372;2024-03-23T23:23:14;3.10;99.90
36372;DHT22;22398;51.346;12.372;2024-03-23T23:28:18;3.10;99.90
36372;DHT22;22398;51.346;12.372;2024-03-23T23:33:21;3.10;99.90
36372;DHT22;22398;51.346;12.372;2024-03-23T23:38:24;3.10;99.90
36372;DHT22;22398;51.346;12.372;2024-03-23T23:43:29;3.20;99.90
36372;DHT22;22398;51.346;12.372;2024-03-23T23:48:32;3.20;99.90
36372;DHT22;22398;51.346;12.372;2024-03-23T23:53:35;3.20;99.90
36372;DHT22;22398;51.346;12.372;2024-03-23T23:58:40;3.20;99.90
